Main page
METAR-TAF:

METAR-TAF

Airports :

Kassel Airport

Kassel, Germany

latitude: 51-24N, longitude: 009-23E, elevation: 277 m

Current weather observation

The report was made 3 hours and 39 minutes ago, at 20:20 UTC
Wind 7 kt from the North/Northeast
Temperature 3°C
Humidity 100%
Pressure 1004 hPa
Visibility: 5000 m
Overcast at a height of 400 ft
light rain

METAR: EDVK 172020Z 02007KT 5000 -RA OVC004 03/03 Q1004

Time: 00:59 (23:59 UTC)

Forecast

The report was made 3 hours and 59 minutes ago, at 20:00 UTC
Forecast valid from 17 at 21 UTC to 18 at 03 UTC
Wind 4 kt from the North
Visibility: 5000 m
Overcast at a height of 500 ft
mist
Becoming
from 17 at 21 UTC to 17 at 23 UTC
Visibility: 3000 m
Overcast at a height of 300 ft
Temporary
from 17 at 21 UTC to 18 at 03 UTC
Visibility: 0800 m
Overcast at a height of 100 ft
light drizzle, fog

TAF: EDVK 172000Z 1721/1803 01004KT 5000 BR OVC005 BECMG 1721/1723 3000 OVC003 TEMPO 1721/1803 0800 -DZ FG OVC001

Weather observations and forecasts of more than 4000 airports (METAR and TAF reports).

The available stations are represented by yellow and red dots on the map.

Hover mouse over dot to see the name of the station.

Then click to see weather observations and forecasts.

To change the map : click on the green buttons with a black cross to zoom in, on the green button with a dash to zoom out, or on the green arrows for adjacent maps.


METAR-TAF: